सभी
Norseman Airport (Norseman, Western Australia) YNSM मौसम
|
Norseman, Western Australia (YNSM)
स्वच्छ आकाश
शांत हवाएं |
|
10 °C |
There is no TAF data available at YNSM or any nearby airports.
Recent YNSM METAR history
| Date | Time (AWST) | Flight Rules | Wind Dir. | Speed | Type | Height AGL (ft) | Visibility | Temp (°C) | Temp (°F) | Dew Point (°C) | Dew Point (°F) | Rel. Humid. | Pressure | Density Altitude | Remarks |
|---|---|---|---|---|---|---|---|---|---|---|---|---|---|---|---|
| 05-मई | 05:00 | n/a | 60° | 2 kt | Missing | 10° | 50° | 10° | 50° | 100% | 1027 mb | -136 ft | |||
| 05-मई | 04:00 | n/a | Calm | Missing | 9° | 48° | 9° | 48° | 100% | 1027 mb | -256 ft | ||||
| 05-मई | 03:00 | n/a | Calm | Missing | 9° | 48° | 8° | 46° | 93% | 1027 mb | -256 ft | ||||
| 05-मई | 02:00 | n/a | Calm | Missing | 10° | 50° | 9° | 48° | 93% | 1027 mb | -136 ft | ||||
| 05-मई | 01:00 | n/a | 140° | 5 kt | Missing | 12° | 53° | 10° | 50° | 88% | 1027 mb | 104 ft | |||
| 05-मई | 00:00 | n/a | 180° | 5 kt | Missing | 11° | 51° | 10° | 50° | 94% | 1027 mb | -16 ft | |||
| 04-मई | 23:00 | n/a | 160° | 4 kt | Missing | 10° | 50° | 8° | 46° | 87% | 1027 mb | -136 ft | |||
| 04-मई | 22:00 | n/a | 120° | 4 kt | Missing | 12° | 53° | 9° | 48° | 82% | 1027 mb | 104 ft | |||
| 04-मई | 21:00 | n/a | 110° | 4 kt | Missing | 15° | 59° | 9° | 48° | 67% | 1027 mb | 464 ft | |||
| 04-मई | 20:00 | n/a | 140° | 4 kt | Missing | 13° | 55° | 9° | 48° | 77% | 1027 mb | 224 ft | |||
| 04-मई | 19:00 | n/a | 130° | 3 kt | Missing | 12° | 53° | 9° | 48° | 82% | 1027 mb | 104 ft | |||
| 04-मई | 18:00 | n/a | 170° | 3 kt | Missing | 14° | 57° | 9° | 48° | 72% | 1026 mb | 373 ft | |||
| 04-मई | 17:00 | n/a | 160° | 6 kt | Missing | 16° | 60° | 9° | 48° | 63% | 1026 mb | 613 ft | |||
| 04-मई | 16:00 | n/a | 160° | 5 kt | Missing | 18° | 64° | 9° | 48° | 56% | 1026 mb | 853 ft | |||
| 04-मई | 15:00 | n/a | 180° | 1 kt | Missing | 18° | 64° | 9° | 48° | 56% | 1026 mb | 853 ft | |||
| 04-मई | 14:00 | n/a | 170° | 5 kt | Missing | 17° | 62° | 9° | 48° | 59% | 1026 mb | 733 ft | |||
| 04-मई | 13:00 | n/a | 190° | 8 kt | Missing | 16° | 60° | 10° | 50° | 68% | 1026 mb | 613 ft | |||
| 04-मई | 12:00 | n/a | 160° | 6 kt | Missing | 16° | 60° | 9° | 48° | 63% | 1027 mb | 584 ft | |||
| 04-मई | 11:00 | n/a | 170° | 5 kt | Missing | 15° | 59° | 10° | 50° | 72% | 1027 mb | 464 ft | |||
| 04-मई | 10:00 | n/a | 220° | 3 kt | Missing | 15° | 59° | 12° | 53° | 82% | 1028 mb | 434 ft | |||
| 04-मई | 09:00 | n/a | 200° | 4 kt | Missing | 14° | 57° | 12° | 53° | 88% | 1028 mb | 314 ft | |||
| 04-मई | 08:00 | n/a | 220° | 4 kt | Missing | 13° | 55° | 12° | 53° | 94% | 1028 mb | 194 ft | |||
| 04-मई | 07:00 | n/a | 210° | 4 kt | Missing | 12° | 53° | 11° | 51° | 94% | 1027 mb | 104 ft | |||
| 04-मई | 06:00 | n/a | 210° | 3 kt | Missing | 12° | 53° | 11° | 51° | 94% | 1027 mb | 104 ft |
लॉगिन
| Your browser is unsupported. अपना ब्राऊजर अपग्रेड करें |
